createdAt,value
2023-03-31T00:01:14.090Z,11.95
2023-03-31T00:03:48.381Z,11.97
2023-03-31T00:06:20.345Z,11.89
2023-03-31T00:08:53.948Z,11.76
2023-03-31T00:11:24.663Z,11.76
2023-03-31T00:13:55.333Z,11.79
2023-03-31T00:16:24.026Z,11.79
2023-03-31T00:18:53.419Z,11.72
2023-03-31T00:21:37.310Z,11.73
2023-03-31T00:24:08.292Z,11.83
2023-03-31T00:26:48.251Z,11.74
2023-03-31T00:29:17.657Z,11.66
2023-03-31T00:31:49.765Z,11.76
2023-03-31T00:34:20.759Z,11.64
2023-03-31T00:36:50.817Z,11.73
2023-03-31T00:39:25.456Z,11.64
2023-03-31T00:41:55.853Z,11.61
2023-03-31T00:44:27.077Z,11.60
2023-03-31T00:46:58.331Z,11.60
2023-03-31T00:49:38.458Z,11.76
2023-03-31T00:52:14.748Z,11.69
2023-03-31T00:54:49.170Z,11.72
2023-03-31T00:57:37.014Z,11.63
2023-03-31T01:00:14.603Z,11.83
2023-03-31T01:02:53.576Z,11.79
2023-03-31T01:05:25.049Z,11.65
2023-03-31T01:08:03.766Z,11.74
2023-03-31T01:10:41.953Z,11.73
2023-03-31T01:13:21.101Z,11.93
2023-03-31T01:15:49.395Z,11.92
2023-03-31T01:18:21.848Z,11.73
2023-03-31T01:21:14.910Z,11.89
2023-03-31T01:24:15.300Z,11.70
2023-03-31T01:27:07.030Z,11.93
2023-03-31T01:30:01.877Z,11.75
2023-03-31T01:33:02.617Z,11.86
2023-03-31T01:36:02.247Z,11.85
2023-03-31T01:39:11.054Z,11.71
2023-03-31T01:42:01.853Z,11.85
2023-03-31T01:44:39.417Z,11.85
2023-03-31T01:47:21.002Z,11.72
2023-03-31T01:50:02.197Z,11.72
2023-03-31T01:52:39.155Z,11.81
2023-03-31T01:55:10.948Z,11.60
2023-03-31T01:58:03.238Z,11.66
2023-03-31T02:00:40.473Z,11.71
2023-03-31T02:03:17.322Z,11.79
2023-03-31T02:05:50.647Z,11.84
2023-03-31T02:08:24.148Z,11.88
2023-03-31T02:10:54.017Z,11.82
2023-03-31T02:13:29.777Z,11.85
2023-03-31T02:16:08.519Z,11.61
2023-03-31T02:18:49.506Z,11.86
2023-03-31T02:21:22.840Z,11.73
2023-03-31T02:23:56.817Z,11.80
2023-03-31T02:26:28.012Z,11.78
2023-03-31T02:29:12.570Z,11.72
2023-03-31T02:31:48.174Z,11.77
2023-03-31T02:34:20.134Z,11.72
2023-03-31T02:36:51.547Z,11.88
2023-03-31T02:39:25.593Z,11.79
2023-03-31T02:41:56.843Z,11.69
2023-03-31T02:44:30.757Z,11.64
2023-03-31T02:47:02.544Z,11.59
2023-03-31T02:49:32.334Z,11.84
2023-03-31T02:52:26.361Z,11.70
2023-03-31T02:55:20.516Z,11.63
2023-03-31T02:58:06.765Z,11.59
2023-03-31T03:00:48.433Z,11.66
2023-03-31T03:03:32.824Z,11.57
2023-03-31T03:06:15.028Z,11.40
2023-03-31T03:09:08.630Z,11.46
2023-03-31T03:11:49.268Z,11.35
2023-03-31T03:14:27.959Z,11.39
2023-03-31T03:17:16.408Z,11.24
2023-03-31T03:19:47.882Z,11.29
2023-03-31T03:22:17.659Z,11.17
2023-03-31T03:24:52.673Z,11.31
2023-03-31T03:27:23.972Z,11.26
2023-03-31T03:29:57.370Z,11.26
2023-03-31T03:32:40.948Z,11.17
2023-03-31T03:35:13.240Z,11.14
2023-03-31T03:37:51.196Z,11.38
2023-03-31T03:40:20.234Z,11.34
2023-03-31T03:42:49.535Z,11.42
2023-03-31T03:45:19.022Z,11.33
2023-03-31T03:47:53.468Z,11.19
2023-03-31T03:50:25.063Z,11.16
2023-03-31T03:52:55.035Z,11.07
2023-03-31T03:55:27.064Z,11.13
2023-03-31T03:57:58.113Z,11.08
2023-03-31T04:00:27.702Z,11.18
2023-03-31T04:03:00.367Z,11.33
2023-03-31T04:05:31.242Z,11.26
2023-03-31T04:07:59.760Z,11.15
2023-03-31T04:10:29.220Z,11.21
2023-03-31T04:13:03.258Z,11.24
2023-03-31T04:15:35.095Z,11.12
2023-03-31T04:18:06.191Z,11.26
2023-03-31T04:20:37.809Z,11.38
2023-03-31T04:23:09.734Z,11.38
2023-03-31T04:25:46.872Z,11.22
2023-03-31T04:28:26.730Z,11.25
2023-03-31T04:30:59.673Z,11.15
2023-03-31T04:33:29.869Z,11.23
2023-03-31T04:36:07.241Z,11.24
2023-03-31T04:38:36.507Z,11.28
2023-03-31T04:41:10.675Z,11.21
2023-03-31T04:43:46.546Z,11.32
2023-03-31T04:46:15.806Z,11.40
2023-03-31T04:48:54.818Z,11.22
2023-03-31T04:51:26.162Z,11.16
2023-03-31T04:53:56.677Z,11.17
2023-03-31T04:56:28.517Z,11.12
2023-03-31T04:59:00.460Z,11.06
2023-03-31T05:01:35.473Z,11.02
2023-03-31T05:04:11.165Z,10.88
2023-03-31T05:06:39.735Z,10.91
2023-03-31T05:09:09.823Z,10.89
2023-03-31T05:11:39.343Z,10.84
2023-03-31T05:14:11.098Z,10.69
2023-03-31T05:16:42.084Z,10.70
2023-03-31T05:19:27.521Z,10.70
2023-03-31T05:21:56.677Z,10.49
2023-03-31T05:24:28.424Z,10.55
2023-03-31T05:26:58.242Z,10.46
2023-03-31T05:29:44.119Z,10.44
2023-03-31T05:32:13.338Z,10.40
2023-03-31T05:34:44.409Z,10.67
2023-03-31T05:37:12.908Z,10.50
2023-03-31T05:39:42.101Z,10.52
2023-03-31T05:42:10.617Z,10.63
2023-03-31T05:44:48.534Z,10.86
2023-03-31T05:47:27.813Z,10.76
2023-03-31T05:50:14.886Z,10.87
2023-03-31T05:52:47.086Z,10.97
2023-03-31T05:55:18.945Z,11.06
2023-03-31T05:57:57.647Z,10.91
2023-03-31T06:00:28.009Z,10.92
2023-03-31T06:03:00.333Z,11.00
2023-03-31T06:05:32.428Z,11.21
2023-03-31T06:08:00.572Z,11.14
2023-03-31T06:10:29.944Z,11.18
2023-03-31T06:12:59.029Z,11.38
2023-03-31T06:15:30.644Z,11.45
2023-03-31T06:18:01.935Z,11.50
2023-03-31T06:20:39.820Z,11.67
2023-03-31T06:23:11.291Z,11.75
2023-03-31T06:25:50.936Z,11.79
2023-03-31T06:28:20.786Z,11.96
2023-03-31T06:30:52.893Z,11.99
2023-03-31T06:33:24.255Z,12.02
2023-03-31T06:35:58.326Z,12.11
2023-03-31T06:38:27.971Z,12.12
2023-03-31T06:40:59.641Z,12.32
2023-03-31T06:43:29.558Z,12.47
2023-03-31T06:45:58.702Z,12.49
2023-03-31T06:48:29.625Z,12.61
2023-03-31T06:51:20.914Z,12.79
2023-03-31T06:53:49.637Z,12.99
2023-03-31T06:56:24.789Z,12.99
2023-03-31T06:58:57.009Z,13.04
2023-03-31T07:01:26.608Z,13.19
2023-03-31T07:03:55.774Z,13.20
2023-03-31T07:06:36.905Z,13.21
2023-03-31T07:09:07.844Z,13.26
2023-03-31T07:11:37.179Z,13.31
2023-03-31T07:14:06.998Z,13.41
2023-03-31T07:16:36.739Z,13.49
2023-03-31T07:19:08.136Z,13.62
2023-03-31T07:21:38.817Z,13.67
2023-03-31T07:24:07.162Z,13.68
2023-03-31T07:26:36.423Z,13.77
2023-03-31T07:29:07.944Z,13.84
2023-03-31T07:31:39.683Z,13.80
2023-03-31T07:34:09.424Z,13.79
2023-03-31T07:36:46.013Z,13.80
2023-03-31T07:39:14.945Z,13.85
2023-03-31T07:41:44.304Z,13.88
2023-03-31T07:44:28.544Z,13.88
2023-03-31T07:47:07.113Z,13.93
2023-03-31T07:49:38.848Z,13.93
2023-03-31T07:52:22.746Z,13.97
2023-03-31T07:54:59.062Z,14.01
2023-03-31T07:57:28.480Z,13.98
2023-03-31T07:59:57.702Z,14.11
2023-03-31T08:02:27.146Z,14.24
2023-03-31T08:04:58.983Z,14.35
2023-03-31T08:07:37.941Z,14.52
2023-03-31T08:10:11.973Z,14.57
2023-03-31T08:12:44.051Z,14.56
2023-03-31T08:15:14.033Z,14.61
2023-03-31T08:17:44.766Z,14.59
2023-03-31T08:20:16.806Z,14.64
2023-03-31T08:22:53.724Z,14.71
2023-03-31T08:25:28.782Z,14.67
2023-03-31T08:27:59.842Z,14.63
2023-03-31T08:30:29.072Z,14.67
2023-03-31T08:32:57.885Z,14.67
2023-03-31T08:35:29.747Z,14.71
2023-03-31T08:38:05.830Z,14.67
2023-03-31T08:40:42.429Z,14.67
2023-03-31T08:43:15.890Z,14.74
2023-03-31T08:45:48.349Z,14.74
2023-03-31T08:48:25.964Z,14.79
2023-03-31T08:51:21.236Z,14.70
2023-03-31T08:53:56.688Z,14.70
2023-03-31T08:56:33.239Z,14.61
2023-03-31T08:59:04.138Z,14.61
2023-03-31T09:01:55.742Z,14.63
2023-03-31T09:04:53.476Z,14.63
2023-03-31T09:07:33.259Z,14.67
2023-03-31T09:10:24.012Z,14.55
2023-03-31T09:12:57.782Z,14.57
2023-03-31T09:15:29.851Z,14.55
2023-03-31T09:18:04.569Z,14.61
2023-03-31T09:20:38.422Z,14.56
2023-03-31T09:23:23.368Z,14.54
2023-03-31T09:26:03.061Z,14.43
2023-03-31T09:28:38.959Z,14.38
2023-03-31T09:31:20.170Z,14.42
2023-03-31T09:33:51.556Z,14.51
2023-03-31T09:36:22.925Z,14.56
2023-03-31T09:38:53.416Z,14.60
2023-03-31T09:41:37.885Z,14.67
2023-03-31T09:44:09.477Z,14.83
2023-03-31T09:46:40.361Z,14.89
2023-03-31T09:49:15.310Z,15.01
2023-03-31T09:51:46.771Z,15.00
2023-03-31T09:54:21.337Z,14.93
2023-03-31T09:56:54.528Z,14.95
2023-03-31T09:59:25.628Z,14.94
2023-03-31T10:02:03.093Z,14.96
2023-03-31T10:04:33.876Z,14.98
2023-03-31T10:07:16.638Z,14.96
2023-03-31T10:09:48.421Z,14.95
2023-03-31T10:12:27.619Z,14.90
2023-03-31T10:15:14.472Z,14.96
2023-03-31T10:17:55.406Z,14.94
2023-03-31T10:20:36.592Z,14.91
2023-03-31T10:23:15.747Z,14.92
2023-03-31T10:25:53.659Z,14.96
2023-03-31T10:28:28.304Z,14.90
2023-03-31T10:31:04.111Z,14.98
2023-03-31T10:33:35.831Z,15.07
2023-03-31T10:36:27.517Z,15.14
2023-03-31T10:38:58.655Z,15.20
2023-03-31T10:41:28.816Z,15.30
2023-03-31T10:44:05.775Z,15.41
2023-03-31T10:46:55.888Z,15.36
2023-03-31T10:49:27.827Z,15.36
2023-03-31T10:51:59.637Z,15.44
2023-03-31T10:54:29.402Z,15.45
2023-03-31T10:57:06.505Z,15.54
2023-03-31T11:00:00.686Z,15.47
2023-03-31T11:02:50.302Z,15.39
2023-03-31T11:05:29.503Z,15.21
2023-03-31T11:08:12.126Z,15.32
2023-03-31T11:11:04.024Z,15.41
2023-03-31T11:13:38.227Z,15.39
2023-03-31T11:16:28.399Z,15.36
2023-03-31T11:19:27.402Z,15.51
2023-03-31T11:22:05.381Z,15.48
2023-03-31T11:24:47.319Z,15.54
2023-03-31T11:27:36.913Z,15.60
2023-03-31T11:30:12.299Z,15.99
2023-03-31T11:33:05.662Z,16.38
2023-03-31T11:35:48.440Z,16.49
2023-03-31T11:38:38.293Z,16.62
2023-03-31T11:41:24.917Z,16.72
2023-03-31T11:43:58.842Z,16.81
2023-03-31T11:46:33.710Z,17.27
2023-03-31T11:49:21.103Z,17.43
2023-03-31T11:51:54.241Z,17.39
2023-03-31T11:54:28.922Z,17.37
2023-03-31T11:56:57.917Z,17.53
2023-03-31T11:59:30.134Z,17.65
2023-03-31T12:02:06.001Z,18.21
2023-03-31T12:04:44.049Z,18.60
2023-03-31T12:07:26.496Z,18.79
2023-03-31T12:10:05.854Z,18.22
2023-03-31T12:12:39.259Z,17.85
2023-03-31T12:15:18.960Z,17.68
2023-03-31T12:17:56.564Z,17.55
2023-03-31T12:20:34.882Z,17.43
2023-03-31T12:23:12.612Z,17.27
2023-03-31T12:25:51.904Z,17.04
2023-03-31T12:28:23.378Z,16.83
2023-03-31T12:30:54.882Z,16.71
2023-03-31T12:33:27.168Z,16.56
2023-03-31T12:36:20.855Z,16.38
2023-03-31T12:39:01.804Z,16.29
2023-03-31T12:41:39.023Z,16.49
2023-03-31T12:44:25.425Z,16.67
2023-03-31T12:47:36.028Z,17.09
2023-03-31T12:50:47.244Z,17.42
2023-03-31T12:53:35.456Z,17.42
2023-03-31T12:56:07.468Z,18.10
2023-03-31T12:59:01.847Z,18.81
2023-03-31T13:01:29.980Z,19.36
2023-03-31T13:04:20.720Z,19.38
2023-03-31T13:06:59.699Z,19.75
2023-03-31T13:10:05.078Z,19.54
2023-03-31T13:12:36.075Z,19.83
2023-03-31T13:15:06.423Z,19.94
2023-03-31T13:17:39.730Z,19.70
2023-03-31T13:20:36.146Z,19.74
2023-03-31T13:23:08.845Z,20.05
2023-03-31T13:25:46.365Z,20.09
2023-03-31T13:28:46.762Z,19.08
2023-03-31T13:31:17.656Z,19.11
2023-03-31T13:34:00.772Z,19.40
2023-03-31T13:36:57.534Z,19.31
2023-03-31T13:39:38.051Z,19.59
2023-03-31T13:42:31.622Z,19.79
2023-03-31T13:45:26.709Z,19.19
2023-03-31T13:48:01.602Z,19.25
2023-03-31T13:50:57.545Z,19.34
2023-03-31T13:53:41.014Z,19.47
2023-03-31T13:56:25.569Z,19.04
2023-03-31T13:59:14.666Z,18.71
2023-03-31T14:02:19.064Z,18.74
2023-03-31T14:05:21.985Z,18.78
2023-03-31T14:07:55.829Z,18.54
2023-03-31T14:10:30.047Z,18.47
2023-03-31T14:13:18.402Z,18.29
2023-03-31T14:15:57.904Z,18.04
2023-03-31T14:18:29.910Z,18.16
2023-03-31T14:21:11.531Z,18.08
2023-03-31T14:23:55.403Z,18.05
2023-03-31T14:26:46.963Z,17.98
2023-03-31T14:29:23.413Z,17.83
2023-03-31T14:31:58.575Z,17.70
2023-03-31T14:34:59.679Z,17.59
2023-03-31T14:37:30.968Z,17.63
2023-03-31T14:40:00.006Z,17.52
2023-03-31T14:42:40.455Z,17.47
2023-03-31T14:45:19.489Z,17.48
2023-03-31T14:48:08.512Z,17.36
2023-03-31T14:50:37.782Z,17.33
2023-03-31T14:53:06.533Z,17.24
2023-03-31T14:58:08.449Z,17.19
2023-03-31T15:00:40.877Z,17.14
2023-03-31T15:03:19.669Z,17.16
2023-03-31T15:05:59.691Z,17.06
2023-03-31T15:08:37.241Z,16.97
2023-03-31T15:13:47.011Z,16.98
2023-03-31T15:16:42.716Z,16.79
2023-03-31T15:19:36.700Z,16.62
2023-03-31T15:22:17.660Z,16.57
2023-03-31T15:24:47.143Z,16.39
2023-03-31T15:27:23.474Z,16.26
2023-03-31T15:30:08.529Z,15.91
2023-03-31T15:32:42.599Z,14.84
2023-03-31T15:35:23.570Z,14.44
2023-03-31T15:37:53.845Z,14.04
2023-03-31T15:40:27.164Z,13.85
2023-03-31T15:43:13.330Z,13.83
2023-03-31T15:45:52.990Z,13.47
2023-03-31T15:48:25.338Z,13.60
2023-03-31T15:51:04.195Z,13.40
2023-03-31T15:53:41.276Z,13.37
2023-03-31T15:56:12.017Z,13.43
2023-03-31T15:59:07.825Z,13.55
2023-03-31T16:01:50.714Z,13.61
2023-03-31T16:04:20.408Z,13.43
2023-03-31T16:06:55.204Z,13.37
2023-03-31T16:09:27.849Z,13.38
2023-03-31T16:11:58.615Z,13.44
2023-03-31T16:14:31.658Z,13.39
2023-03-31T16:17:04.002Z,13.62
2023-03-31T16:19:41.556Z,13.55
2023-03-31T16:22:21.885Z,13.54
2023-03-31T16:24:54.357Z,13.59
2023-03-31T16:27:26.870Z,13.56
2023-03-31T16:30:08.660Z,13.63
2023-03-31T16:32:40.551Z,13.68
2023-03-31T16:35:16.543Z,13.58
2023-03-31T16:37:47.335Z,13.58
2023-03-31T16:40:28.730Z,13.75
2023-03-31T16:43:20.192Z,13.67
2023-03-31T16:46:00.579Z,13.73
2023-03-31T16:48:38.674Z,14.04
2023-03-31T16:51:16.121Z,13.88
2023-03-31T16:53:52.734Z,13.94
2023-03-31T16:56:23.950Z,13.77
2023-03-31T16:58:54.162Z,13.80
2023-03-31T17:01:23.885Z,13.97
2023-03-31T17:03:53.198Z,13.88
2023-03-31T17:06:24.387Z,13.83
2023-03-31T17:08:58.732Z,14.11
2023-03-31T17:11:33.719Z,13.96
2023-03-31T17:14:10.547Z,13.92
2023-03-31T17:19:34.216Z,13.94
2023-03-31T17:22:13.024Z,13.88
2023-03-31T17:24:50.663Z,13.92
2023-03-31T17:27:32.331Z,13.91
2023-03-31T17:32:33.918Z,13.99
2023-03-31T17:35:05.368Z,13.93
2023-03-31T17:37:48.570Z,13.91
2023-03-31T17:40:19.745Z,13.84
2023-03-31T17:42:55.305Z,13.68
2023-03-31T17:45:25.482Z,13.88
2023-03-31T17:47:58.463Z,13.84
2023-03-31T17:50:35.015Z,13.90
2023-03-31T17:53:10.391Z,13.84
2023-03-31T17:55:46.435Z,13.98
2023-03-31T17:58:23.411Z,13.80
2023-03-31T18:01:10.340Z,13.77
2023-03-31T18:03:48.851Z,13.66
2023-03-31T18:06:20.315Z,13.63
2023-03-31T18:08:54.664Z,13.66
2023-03-31T18:11:35.486Z,13.56
2023-03-31T18:14:11.185Z,13.64
2023-03-31T18:16:40.667Z,13.56
2023-03-31T18:19:25.597Z,13.68
2023-03-31T18:21:57.376Z,13.62
2023-03-31T18:24:35.047Z,13.60
2023-03-31T18:27:24.599Z,13.66
2023-03-31T18:29:59.714Z,13.76
2023-03-31T18:32:34.204Z,13.60
2023-03-31T18:35:10.022Z,13.69
2023-03-31T18:37:42.666Z,13.73
2023-03-31T18:40:19.450Z,13.65
2023-03-31T18:42:54.267Z,13.60
2023-03-31T18:45:34.275Z,13.70
2023-03-31T18:48:04.841Z,13.70
2023-03-31T18:50:37.876Z,13.77
2023-03-31T18:53:09.106Z,13.72
2023-03-31T18:55:45.650Z,13.67
2023-03-31T18:58:24.482Z,13.79
2023-03-31T19:01:01.357Z,13.72
2023-03-31T19:03:34.397Z,13.61
2023-03-31T19:06:20.487Z,13.62
2023-03-31T19:08:52.509Z,13.61
2023-03-31T19:11:26.264Z,13.57
2023-03-31T19:14:03.779Z,13.76
2023-03-31T19:16:46.371Z,13.61
2023-03-31T19:19:24.399Z,13.60
2023-03-31T19:21:55.010Z,13.48
2023-03-31T19:24:33.921Z,13.62
2023-03-31T19:27:04.765Z,13.67
2023-03-31T19:29:38.842Z,13.69
2023-03-31T19:32:19.054Z,13.82
2023-03-31T19:34:50.035Z,13.71
2023-03-31T19:37:27.816Z,13.82
2023-03-31T19:40:00.265Z,13.78
2023-03-31T19:42:34.105Z,13.64
2023-03-31T19:45:05.765Z,13.56
2023-03-31T19:47:36.923Z,13.42
2023-03-31T19:50:15.865Z,13.54
2023-03-31T19:52:50.919Z,13.64
2023-03-31T19:55:29.590Z,13.54
2023-03-31T19:58:06.856Z,13.42
2023-03-31T20:00:47.667Z,13.32
2023-03-31T20:03:19.368Z,13.32
2023-03-31T20:05:50.153Z,13.34
2023-03-31T20:08:28.581Z,13.35
2023-03-31T20:11:11.536Z,13.36
2023-03-31T20:13:45.888Z,13.35
2023-03-31T20:16:18.626Z,13.24
2023-03-31T20:18:54.538Z,13.35
2023-03-31T20:21:28.124Z,13.11
2023-03-31T20:23:59.238Z,13.19
2023-03-31T20:26:32.806Z,13.19
2023-03-31T20:29:11.894Z,13.03
2023-03-31T20:31:53.414Z,13.11
2023-03-31T20:34:33.102Z,13.19
2023-03-31T20:37:04.548Z,13.20
2023-03-31T20:39:35.382Z,12.99
2023-03-31T20:42:14.477Z,13.07
2023-03-31T20:44:46.671Z,13.16
2023-03-31T20:47:17.970Z,12.98
2023-03-31T20:49:52.352Z,13.03
2023-03-31T20:52:21.242Z,12.93
2023-03-31T20:54:52.728Z,12.99
2023-03-31T20:57:30.394Z,12.87
2023-03-31T21:00:02.736Z,12.92
2023-03-31T21:02:44.193Z,12.99
2023-03-31T21:05:17.991Z,12.81
2023-03-31T21:07:49.453Z,12.80
2023-03-31T21:10:21.042Z,12.66
2023-03-31T21:12:50.615Z,12.73
2023-03-31T21:15:18.807Z,12.79
2023-03-31T21:17:54.441Z,12.77
2023-03-31T21:20:25.167Z,12.85
2023-03-31T21:22:57.324Z,12.69
2023-03-31T21:25:26.102Z,12.67
2023-03-31T21:28:09.182Z,12.64
2023-03-31T21:30:42.071Z,12.74
2023-03-31T21:33:27.409Z,12.64
2023-03-31T21:36:09.662Z,12.67
2023-03-31T21:38:38.942Z,12.68
2023-03-31T21:41:10.994Z,12.63
2023-03-31T21:43:53.131Z,12.70
2023-03-31T21:46:24.254Z,12.73
2023-03-31T21:49:16.172Z,12.78
2023-03-31T21:51:49.198Z,12.83
2023-03-31T21:54:18.711Z,12.72
2023-03-31T21:56:46.822Z,12.98
2023-03-31T21:59:18.026Z,12.78
2023-03-31T22:01:52.215Z,12.98
2023-03-31T22:04:30.767Z,12.83
2023-03-31T22:07:00.716Z,12.86
2023-03-31T22:09:30.479Z,12.65
2023-03-31T22:12:05.091Z,12.71
2023-03-31T22:14:34.790Z,12.72
2023-03-31T22:17:05.996Z,12.87
2023-03-31T22:19:37.441Z,12.64
2023-03-31T22:22:08.295Z,12.65
2023-03-31T22:24:37.723Z,12.50
2023-03-31T22:27:15.798Z,12.49
2023-03-31T22:29:47.538Z,12.55
2023-03-31T22:32:24.896Z,12.39
2023-03-31T22:34:55.436Z,12.38
2023-03-31T22:37:25.675Z,12.32
2023-03-31T22:39:56.496Z,12.30
2023-03-31T22:42:28.478Z,12.45
2023-03-31T22:44:57.939Z,12.24
2023-03-31T22:47:29.740Z,12.38
2023-03-31T22:50:09.405Z,12.42
2023-03-31T22:52:44.034Z,12.31
2023-03-31T22:55:15.988Z,12.27
2023-03-31T22:57:46.038Z,12.47
2023-03-31T23:00:17.146Z,12.17
2023-03-31T23:02:48.082Z,12.16
2023-03-31T23:05:24.424Z,12.21
2023-03-31T23:07:56.318Z,12.04
2023-03-31T23:10:25.685Z,12.11
2023-03-31T23:12:56.162Z,12.05
2023-03-31T23:15:28.418Z,12.11
2023-03-31T23:18:00.685Z,12.03
2023-03-31T23:20:31.333Z,12.03
2023-03-31T23:23:03.103Z,12.05
2023-03-31T23:25:33.443Z,12.25
2023-03-31T23:28:04.485Z,12.05
2023-03-31T23:30:37.374Z,11.99
2023-03-31T23:33:07.079Z,11.81
2023-03-31T23:35:37.946Z,11.93
2023-03-31T23:38:07.858Z,11.96
2023-03-31T23:40:46.329Z,11.93
2023-03-31T23:43:16.441Z,11.80
2023-03-31T23:45:45.235Z,11.88
2023-03-31T23:48:17.440Z,11.89
2023-03-31T23:50:54.844Z,11.83
2023-03-31T23:53:24.211Z,11.87
2023-03-31T23:55:56.784Z,11.89
2023-03-31T23:58:30.485Z,11.92
